Terminal Aerodrome Forecast
Issued by NWS Los Angeles, CA

Home | Current Version | Previous Version | Text Only | Print | Product List | Glossary On
Versions: 1 2 3 4 5 6 7 8 9 10 11 12 13 14 15 16 17 18 19 20 21 22 23 24 25 26
000
FTUS46 KLOX 241744
TAFSMX
TAF
KSMX 241744Z 2418/2518 24006KT P6SM SCT200
     FM242100 27010KT P6SM BKN070
     FM250300 16008KT P6SM -SHRA SCT025 OVC070
     FM250700 VRB03KT P6SM -RA BKN015 OVC025
     FM251200 VRB03KT P6SM -SHRA SCT015 OVC025
     FM251600 VRB03KT P6SM VCSH BKN025=

USA.gov is the U.S. government's official web portal to all federal, state and local government web resources and services.